createdAt,value
2022-08-31T00:00:12.942Z,45.20
2022-08-31T00:02:59.045Z,45.50
2022-08-31T00:05:26.583Z,45.50
2022-08-31T00:07:55.625Z,45.50
2022-08-31T00:10:32.808Z,46.00
2022-08-31T00:13:04.918Z,45.80
2022-08-31T00:15:35.330Z,45.90
2022-08-31T00:18:03.867Z,46.20
2022-08-31T00:20:34.330Z,46.10
2022-08-31T00:23:08.163Z,46.00
2022-08-31T00:25:37.292Z,46.00
2022-08-31T00:28:05.615Z,46.00
2022-08-31T00:30:35.491Z,46.20
2022-08-31T00:33:04.042Z,46.30
2022-08-31T00:35:33.864Z,46.30
2022-08-31T00:38:01.272Z,46.60
2022-08-31T00:40:28.947Z,46.40
2022-08-31T00:42:56.808Z,46.60
2022-08-31T00:45:24.581Z,46.60
2022-08-31T00:47:52.655Z,46.70
2022-08-31T00:50:22.187Z,46.60
2022-08-31T00:53:00.193Z,47.10
2022-08-31T00:55:35.756Z,46.60
2022-08-31T00:58:08.915Z,46.80
2022-08-31T01:00:37.534Z,46.70
2022-08-31T01:03:07.944Z,47.00
2022-08-31T01:05:36.999Z,47.20
2022-08-31T01:08:06.102Z,47.40
2022-08-31T01:10:41.326Z,47.40
2022-08-31T01:13:12.206Z,48.00
2022-08-31T01:15:50.432Z,47.80
2022-08-31T01:18:23.573Z,47.60
2022-08-31T01:21:25.082Z,47.90
2022-08-31T01:23:55.402Z,47.40
2022-08-31T01:26:27.293Z,48.30
2022-08-31T01:29:00.638Z,48.00
2022-08-31T01:31:42.023Z,48.70
2022-08-31T01:34:10.578Z,48.20
2022-08-31T01:36:39.727Z,48.10
2022-08-31T01:39:08.796Z,48.10
2022-08-31T01:41:41.280Z,48.20
2022-08-31T01:44:09.101Z,48.10
2022-08-31T01:46:36.612Z,48.10
2022-08-31T01:49:04.534Z,48.30
2022-08-31T01:51:32.229Z,48.10
2022-08-31T01:53:59.980Z,48.50
2022-08-31T01:56:31.994Z,48.30
2022-08-31T01:59:08.177Z,48.90
2022-08-31T02:01:56.078Z,48.40
2022-08-31T02:04:26.518Z,48.50
2022-08-31T02:06:59.421Z,48.50
2022-08-31T02:09:28.170Z,48.70
2022-08-31T02:11:55.986Z,48.80
2022-08-31T02:14:23.438Z,49.10
2022-08-31T02:16:50.954Z,49.00
2022-08-31T02:19:18.846Z,49.10
2022-08-31T02:21:46.660Z,49.60
2022-08-31T02:24:14.330Z,49.60
2022-08-31T02:26:41.853Z,49.30
2022-08-31T02:29:09.344Z,49.40
2022-08-31T02:31:37.328Z,49.60
2022-08-31T02:34:05.538Z,49.40
2022-08-31T02:36:34.798Z,49.60
2022-08-31T02:39:05.492Z,49.30
2022-08-31T02:41:33.976Z,49.80
2022-08-31T02:44:01.541Z,49.40
2022-08-31T02:46:29.304Z,49.30
2022-08-31T02:49:16.980Z,49.70
2022-08-31T02:51:44.733Z,49.30
2022-08-31T02:54:12.795Z,49.20
2022-08-31T02:56:41.602Z,49.20
2022-08-31T02:59:09.198Z,49.40
2022-08-31T03:01:38.022Z,49.50
2022-08-31T03:04:05.989Z,49.60
2022-08-31T03:06:34.381Z,49.70
2022-08-31T03:09:02.527Z,49.80
2022-08-31T03:11:30.056Z,49.80
2022-08-31T03:13:58.937Z,50.30
2022-08-31T03:16:27.083Z,49.70
2022-08-31T03:18:54.947Z,49.80
2022-08-31T03:21:22.310Z,49.70
2022-08-31T03:23:49.701Z,49.80
2022-08-31T03:26:17.754Z,49.90
2022-08-31T03:28:45.215Z,49.80
2022-08-31T03:31:45.311Z,49.90
2022-08-31T03:34:16.126Z,50.10
2022-08-31T03:36:43.898Z,50.00
2022-08-31T03:39:11.289Z,50.30
2022-08-31T03:41:38.798Z,50.00
2022-08-31T03:44:06.884Z,50.80
2022-08-31T03:46:35.633Z,50.40
2022-08-31T03:49:03.724Z,50.50
2022-08-31T03:51:33.314Z,50.60
2022-08-31T03:54:01.377Z,50.50
2022-08-31T03:56:28.905Z,50.60
2022-08-31T03:58:56.625Z,50.30
2022-08-31T04:02:02.352Z,51.00
2022-08-31T04:04:53.208Z,50.50
2022-08-31T04:07:44.015Z,50.50
2022-08-31T04:10:42.295Z,50.50
2022-08-31T04:13:30.199Z,50.50
2022-08-31T04:16:21.350Z,51.00
2022-08-31T04:18:51.811Z,50.70
2022-08-31T04:21:23.040Z,51.50
2022-08-31T04:23:52.212Z,51.00
2022-08-31T04:26:23.453Z,51.10
2022-08-31T04:28:51.441Z,51.90
2022-08-31T04:31:20.487Z,51.50
2022-08-31T04:33:48.209Z,51.60
2022-08-31T04:36:19.646Z,52.20
2022-08-31T04:38:50.645Z,52.00
2022-08-31T04:41:20.310Z,52.30
2022-08-31T04:43:52.078Z,52.50
2022-08-31T04:46:20.399Z,52.60
2022-08-31T04:48:49.245Z,52.90
2022-08-31T04:51:19.312Z,53.40
2022-08-31T04:53:48.109Z,53.30
2022-08-31T04:56:18.826Z,53.40
2022-08-31T04:58:54.945Z,53.60
2022-08-31T05:01:25.712Z,53.20
2022-08-31T05:04:29.130Z,53.20
2022-08-31T05:06:56.821Z,53.30
2022-08-31T05:09:24.497Z,53.20
2022-08-31T05:11:55.971Z,53.30
2022-08-31T05:14:25.047Z,53.50
2022-08-31T05:17:06.291Z,53.50
2022-08-31T05:19:41.461Z,53.50
2022-08-31T05:22:08.926Z,54.00
2022-08-31T05:24:39.040Z,54.10
2022-08-31T05:27:06.767Z,54.00
2022-08-31T05:29:34.198Z,54.80
2022-08-31T05:32:34.439Z,55.00
2022-08-31T05:35:07.542Z,55.20
2022-08-31T05:37:34.863Z,55.20
2022-08-31T05:40:02.912Z,55.40
2022-08-31T05:42:30.399Z,55.30
2022-08-31T05:44:58.258Z,55.90
2022-08-31T05:47:25.613Z,55.50
2022-08-31T05:49:53.074Z,55.50
2022-08-31T05:52:24.845Z,55.50
2022-08-31T05:54:53.274Z,55.70
2022-08-31T05:57:25.803Z,55.70
2022-08-31T05:59:54.896Z,55.70
2022-08-31T06:02:22.539Z,55.90
2022-08-31T06:04:52.164Z,56.00
2022-08-31T06:07:20.965Z,56.40
2022-08-31T06:09:55.099Z,56.00
2022-08-31T06:12:25.539Z,56.40
2022-08-31T06:14:53.641Z,57.00
2022-08-31T06:17:21.343Z,56.60
2022-08-31T06:19:51.454Z,56.70
2022-08-31T06:22:20.007Z,57.00
2022-08-31T06:24:47.750Z,56.90
2022-08-31T06:27:16.000Z,57.40
2022-08-31T06:29:43.791Z,57.20
2022-08-31T06:32:12.504Z,57.60
2022-08-31T06:34:42.895Z,57.40
2022-08-31T06:37:29.116Z,57.70
2022-08-31T06:40:15.350Z,57.90
2022-08-31T06:43:18.193Z,57.40
2022-08-31T06:45:59.621Z,58.50
2022-08-31T06:48:34.581Z,59.10
2022-08-31T06:51:03.151Z,60.20
2022-08-31T06:53:30.794Z,60.00
2022-08-31T06:56:16.500Z,58.60
2022-08-31T06:59:08.424Z,59.60
2022-08-31T07:01:51.414Z,59.30
2022-08-31T07:04:34.325Z,59.30
2022-08-31T07:07:02.764Z,59.20
2022-08-31T07:09:30.340Z,58.80
2022-08-31T07:11:57.799Z,59.20
2022-08-31T07:14:27.431Z,58.60
2022-08-31T07:16:58.596Z,58.80
2022-08-31T07:19:27.440Z,58.60
2022-08-31T07:21:58.883Z,58.60
2022-08-31T07:24:30.487Z,59.20
2022-08-31T07:27:02.255Z,58.70
2022-08-31T07:29:40.987Z,59.50
2022-08-31T07:32:14.746Z,58.70
2022-08-31T07:34:44.018Z,58.80
2022-08-31T07:37:48.903Z,58.80
2022-08-31T07:40:39.510Z,58.50
2022-08-31T07:43:10.559Z,58.90
2022-08-31T07:45:40.488Z,58.80
2022-08-31T07:48:08.991Z,59.20
2022-08-31T07:51:01.274Z,59.00
2022-08-31T07:53:47.432Z,58.60
2022-08-31T07:56:39.734Z,58.50
2022-08-31T07:59:12.281Z,58.90
2022-08-31T08:01:41.712Z,58.60
2022-08-31T08:04:13.126Z,58.50
2022-08-31T08:07:00.716Z,58.50
2022-08-31T08:09:47.588Z,58.30
2022-08-31T08:12:36.233Z,57.90
2022-08-31T08:15:15.672Z,57.70
2022-08-31T08:17:55.581Z,57.70
2022-08-31T08:20:37.543Z,57.30
2022-08-31T08:23:14.002Z,57.80
2022-08-31T08:26:01.379Z,57.30
2022-08-31T08:28:48.888Z,57.40
2022-08-31T08:31:19.778Z,57.10
2022-08-31T08:33:47.174Z,57.00
2022-08-31T08:36:18.036Z,57.20
2022-08-31T08:38:48.807Z,57.20
2022-08-31T08:41:20.254Z,57.10
2022-08-31T08:43:57.421Z,57.00
2022-08-31T08:46:40.603Z,57.00
2022-08-31T08:49:22.116Z,57.20
2022-08-31T08:52:03.642Z,56.90
2022-08-31T08:54:34.427Z,56.80
2022-08-31T08:57:17.530Z,56.40
2022-08-31T08:59:49.531Z,56.10
2022-08-31T09:02:46.802Z,56.20
2022-08-31T09:05:47.765Z,56.00
2022-08-31T09:08:32.312Z,55.70
2022-08-31T09:11:17.488Z,55.90
2022-08-31T09:14:15.337Z,55.70
2022-08-31T09:17:05.348Z,55.60
2022-08-31T09:19:52.830Z,55.80
2022-08-31T09:22:20.697Z,56.20
2022-08-31T09:24:56.100Z,56.00
2022-08-31T09:27:47.744Z,56.60
2022-08-31T09:30:34.015Z,57.00
2022-08-31T09:33:01.421Z,57.40
2022-08-31T09:35:41.207Z,57.30
2022-08-31T09:38:26.759Z,57.80
2022-08-31T09:40:54.940Z,57.70
2022-08-31T09:43:28.684Z,57.50
2022-08-31T09:46:06.210Z,57.80
2022-08-31T09:48:51.931Z,57.50
2022-08-31T09:51:35.514Z,58.10
2022-08-31T09:54:35.749Z,59.50
2022-08-31T09:57:07.504Z,61.20
2022-08-31T09:59:38.421Z,60.80
2022-08-31T10:02:31.747Z,60.70
2022-08-31T10:05:06.309Z,60.70
2022-08-31T10:07:48.174Z,59.50
2022-08-31T10:10:30.068Z,59.80
2022-08-31T10:13:06.812Z,59.20
2022-08-31T10:15:57.903Z,59.30
2022-08-31T10:18:39.495Z,59.40
2022-08-31T10:21:12.272Z,58.70
2022-08-31T10:23:56.135Z,58.90
2022-08-31T10:26:33.977Z,57.50
2022-08-31T10:29:05.974Z,57.10
2022-08-31T10:31:36.858Z,57.90
2022-08-31T10:34:29.979Z,57.80
2022-08-31T10:37:23.982Z,57.60
2022-08-31T10:39:58.499Z,57.00
2022-08-31T10:42:35.917Z,56.60
2022-08-31T10:45:19.093Z,56.60
2022-08-31T10:47:50.026Z,56.10
2022-08-31T10:50:47.902Z,55.70
2022-08-31T10:53:43.897Z,55.40
2022-08-31T10:56:16.751Z,55.50
2022-08-31T10:58:44.061Z,55.30
2022-08-31T11:01:20.468Z,55.60
2022-08-31T11:04:03.334Z,55.00
2022-08-31T11:06:41.602Z,54.70
2022-08-31T11:09:34.816Z,54.50
2022-08-31T11:12:11.731Z,53.70
2022-08-31T11:14:58.612Z,53.50
2022-08-31T11:17:58.968Z,53.00
2022-08-31T11:20:29.556Z,53.00
2022-08-31T11:23:30.064Z,52.40
2022-08-31T11:26:16.358Z,52.00
2022-08-31T11:29:35.099Z,51.80
2022-08-31T11:32:27.702Z,51.80
2022-08-31T11:34:58.133Z,50.90
2022-08-31T11:37:55.480Z,50.70
2022-08-31T11:40:41.646Z,50.90
2022-08-31T11:43:35.856Z,50.40
2022-08-31T11:46:27.902Z,50.50
2022-08-31T11:48:55.524Z,50.20
2022-08-31T11:51:45.057Z,49.40
2022-08-31T11:54:26.923Z,49.30
2022-08-31T11:56:56.625Z,48.70
2022-08-31T11:59:30.810Z,48.70
2022-08-31T12:02:20.565Z,48.40
2022-08-31T12:05:00.162Z,48.80
2022-08-31T12:07:30.093Z,48.40
2022-08-31T12:10:16.786Z,47.80
2022-08-31T12:13:19.495Z,48.20
2022-08-31T12:16:06.738Z,48.20
2022-08-31T12:18:40.060Z,48.20
2022-08-31T12:21:57.537Z,47.40
2022-08-31T12:24:49.231Z,47.40
2022-08-31T12:27:42.226Z,47.10
2022-08-31T12:30:23.331Z,47.60
2022-08-31T12:33:12.551Z,46.80
2022-08-31T12:35:40.182Z,47.10
2022-08-31T12:38:16.043Z,46.90
2022-08-31T12:40:47.248Z,46.90
2022-08-31T12:43:44.517Z,47.10
2022-08-31T12:46:20.838Z,47.00
2022-08-31T12:49:01.932Z,46.20
2022-08-31T12:51:38.570Z,46.70
2022-08-31T12:54:27.068Z,46.00
2022-08-31T12:57:11.805Z,45.90
2022-08-31T13:00:02.371Z,45.30
2022-08-31T13:02:32.990Z,44.80
2022-08-31T13:05:00.684Z,44.20
2022-08-31T13:07:33.981Z,44.50
2022-08-31T13:10:02.898Z,44.60
2022-08-31T13:12:30.308Z,44.10
2022-08-31T13:14:57.738Z,43.90
2022-08-31T13:17:25.759Z,43.50
2022-08-31T13:19:56.151Z,43.20
2022-08-31T13:22:34.909Z,43.70
2022-08-31T13:25:31.698Z,42.80
2022-08-31T13:27:59.456Z,43.30
2022-08-31T13:30:26.879Z,42.80
2022-08-31T13:32:55.032Z,42.80
2022-08-31T13:35:28.161Z,43.20
2022-08-31T13:38:05.737Z,43.10
2022-08-31T13:40:37.318Z,43.90
2022-08-31T13:43:07.882Z,43.90
2022-08-31T13:45:58.576Z,43.10
2022-08-31T13:48:40.702Z,43.20
2022-08-31T13:51:20.521Z,43.10
2022-08-31T13:53:54.484Z,42.10
2022-08-31T13:56:46.666Z,41.90
2022-08-31T13:59:30.974Z,42.50
2022-08-31T14:02:07.522Z,42.20
2022-08-31T14:04:43.999Z,42.60
2022-08-31T14:07:23.799Z,42.10
2022-08-31T14:09:56.797Z,42.30
2022-08-31T14:12:45.882Z,42.20
2022-08-31T14:16:13.319Z,41.80
2022-08-31T14:18:46.934Z,40.90
2022-08-31T14:21:21.529Z,39.90
2022-08-31T14:24:01.205Z,39.80
2022-08-31T14:26:49.265Z,40.40
2022-08-31T14:29:17.159Z,40.80
2022-08-31T14:31:54.923Z,40.80
2022-08-31T14:34:25.867Z,40.50
2022-08-31T14:37:08.548Z,40.70
2022-08-31T14:39:41.804Z,40.80
2022-08-31T14:42:25.331Z,40.80
2022-08-31T14:45:18.864Z,40.90
2022-08-31T14:47:50.798Z,41.50
2022-08-31T14:50:25.368Z,41.40
2022-08-31T14:52:55.151Z,41.50
2022-08-31T14:55:24.824Z,41.10
2022-08-31T14:57:59.439Z,41.10
2022-08-31T15:00:31.601Z,40.60
2022-08-31T15:03:01.155Z,41.10
2022-08-31T15:05:28.883Z,41.40
2022-08-31T15:07:56.827Z,41.30
2022-08-31T15:10:25.760Z,41.20
2022-08-31T15:12:54.470Z,41.30
2022-08-31T15:15:22.102Z,41.20
2022-08-31T15:17:51.648Z,41.10
2022-08-31T15:20:20.842Z,41.00
2022-08-31T15:22:48.599Z,40.50
2022-08-31T15:25:18.709Z,40.70
2022-08-31T15:27:46.516Z,40.40
2022-08-31T15:30:18.605Z,40.20
2022-08-31T15:32:47.872Z,40.10
2022-08-31T15:35:19.582Z,39.80
2022-08-31T15:37:53.088Z,39.70
2022-08-31T15:40:21.500Z,39.80
2022-08-31T15:42:50.868Z,39.60
2022-08-31T15:45:18.451Z,39.70
2022-08-31T15:48:04.917Z,39.40
2022-08-31T15:50:35.800Z,39.30
2022-08-31T15:53:09.534Z,39.20
2022-08-31T15:55:41.227Z,39.40
2022-08-31T15:58:09.820Z,39.30
2022-08-31T16:00:41.568Z,39.30
2022-08-31T16:03:09.170Z,39.70
2022-08-31T16:05:39.300Z,39.80
2022-08-31T16:08:10.280Z,40.10
2022-08-31T16:10:43.476Z,40.10
2022-08-31T16:13:12.020Z,40.20
2022-08-31T16:15:40.253Z,39.70
2022-08-31T16:18:07.982Z,39.90
2022-08-31T16:20:36.086Z,39.80
2022-08-31T16:23:03.625Z,40.20
2022-08-31T16:25:47.719Z,40.50
2022-08-31T16:28:19.215Z,40.60
2022-08-31T16:30:47.277Z,40.70
2022-08-31T16:33:14.793Z,40.70
2022-08-31T16:35:44.588Z,40.50
2022-08-31T16:38:12.813Z,40.80
2022-08-31T16:40:41.633Z,40.40
2022-08-31T16:43:09.870Z,40.40
2022-08-31T16:45:41.570Z,40.50
2022-08-31T16:48:29.766Z,40.80
2022-08-31T16:51:01.907Z,40.60
2022-08-31T16:53:30.140Z,41.00
2022-08-31T16:55:59.879Z,40.80
2022-08-31T16:58:50.748Z,40.90
2022-08-31T17:01:26.980Z,40.90
2022-08-31T17:06:46.562Z,40.90
2022-08-31T17:09:19.885Z,40.80
2022-08-31T17:11:57.284Z,40.90
2022-08-31T17:14:37.471Z,41.80
2022-08-31T17:17:06.865Z,42.20
2022-08-31T17:19:35.979Z,42.80
2022-08-31T17:22:06.278Z,43.40
2022-08-31T17:24:38.633Z,43.10
2022-08-31T17:27:09.465Z,43.20
2022-08-31T17:29:43.734Z,43.10
2022-08-31T17:32:15.395Z,42.80
2022-08-31T17:34:51.559Z,43.20
2022-08-31T17:37:27.735Z,42.20
2022-08-31T17:40:09.850Z,42.50
2022-08-31T17:42:37.721Z,42.60
2022-08-31T17:45:06.583Z,43.30
2022-08-31T17:47:35.809Z,43.40
2022-08-31T17:50:04.148Z,43.80
2022-08-31T17:52:31.626Z,43.80
2022-08-31T17:55:01.705Z,43.90
2022-08-31T17:57:29.538Z,44.20
2022-08-31T17:59:56.954Z,44.10
2022-08-31T18:02:32.367Z,44.10
2022-08-31T18:05:00.887Z,44.40
2022-08-31T18:07:28.994Z,44.30
2022-08-31T18:09:57.027Z,44.70
2022-08-31T18:12:25.687Z,45.00
2022-08-31T18:14:54.074Z,45.10
2022-08-31T18:17:22.342Z,45.50
2022-08-31T18:19:49.852Z,45.00
2022-08-31T18:22:18.162Z,45.00
2022-08-31T18:24:45.775Z,46.20
2022-08-31T18:27:15.172Z,45.60
2022-08-31T18:29:44.544Z,45.90
2022-08-31T18:32:12.738Z,45.90
2022-08-31T18:34:46.178Z,45.80
2022-08-31T18:37:16.095Z,46.10
2022-08-31T18:40:08.135Z,45.90
2022-08-31T18:42:56.964Z,46.00
2022-08-31T18:45:25.953Z,46.10
2022-08-31T18:48:23.696Z,46.40
2022-08-31T18:50:44.108Z,46.50
2022-08-31T18:53:15.380Z,46.20
2022-08-31T18:55:44.441Z,46.30
2022-08-31T18:58:12.583Z,46.30
2022-08-31T19:00:40.503Z,46.40
2022-08-31T19:03:08.217Z,46.40
2022-08-31T19:05:39.170Z,46.60
2022-08-31T19:08:06.842Z,47.10
2022-08-31T19:10:34.725Z,46.60
2022-08-31T19:13:05.410Z,46.80
2022-08-31T19:15:39.801Z,46.70
2022-08-31T19:18:08.883Z,47.20
2022-08-31T19:20:36.533Z,46.80
2022-08-31T19:23:04.400Z,47.20
2022-08-31T19:25:32.018Z,47.20
2022-08-31T19:28:01.620Z,47.10
2022-08-31T19:30:48.626Z,47.30
2022-08-31T19:33:16.465Z,47.40
2022-08-31T19:35:45.095Z,47.40
2022-08-31T19:38:14.177Z,47.70
2022-08-31T19:40:42.082Z,47.40
2022-08-31T19:46:09.934Z,47.60
2022-08-31T19:48:44.355Z,47.70
2022-08-31T19:51:14.367Z,48.10
2022-08-31T19:53:45.739Z,48.10
2022-08-31T19:56:18.124Z,48.10
2022-08-31T19:58:48.237Z,48.40
2022-08-31T20:01:18.242Z,48.40
2022-08-31T20:03:47.815Z,48.10
2022-08-31T20:06:17.255Z,48.50
2022-08-31T20:08:45.291Z,48.40
2022-08-31T20:11:18.112Z,48.50
2022-08-31T20:13:49.735Z,48.50
2022-08-31T20:16:18.430Z,49.10
2022-08-31T20:18:46.891Z,49.10
2022-08-31T20:21:23.334Z,49.20
2022-08-31T20:23:56.781Z,48.80
2022-08-31T20:26:32.967Z,48.90
2022-08-31T20:29:04.241Z,48.90
2022-08-31T20:31:33.543Z,49.40
2022-08-31T20:34:00.897Z,49.00
2022-08-31T20:36:30.728Z,49.10
2022-08-31T20:39:08.237Z,49.20
2022-08-31T20:41:39.666Z,49.50
2022-08-31T20:44:15.515Z,49.70
2022-08-31T20:47:02.882Z,49.90
2022-08-31T20:49:33.485Z,49.50
2022-08-31T20:52:02.254Z,49.70
2022-08-31T20:54:31.159Z,49.40
2022-08-31T20:57:00.653Z,49.40
2022-08-31T20:59:29.045Z,49.50
2022-08-31T21:01:59.404Z,49.80
2022-08-31T21:04:28.957Z,49.30
2022-08-31T21:06:57.877Z,49.50
2022-08-31T21:09:26.705Z,49.70
2022-08-31T21:11:55.960Z,49.40
2022-08-31T21:14:27.629Z,49.50
2022-08-31T21:16:56.190Z,49.40
2022-08-31T21:19:24.916Z,49.50
2022-08-31T21:21:56.211Z,49.60
2022-08-31T21:24:23.559Z,49.60
2022-08-31T21:26:57.603Z,49.60
2022-08-31T21:29:25.850Z,50.10
2022-08-31T21:32:01.181Z,49.70
2022-08-31T21:34:31.057Z,49.70
2022-08-31T21:36:58.537Z,49.70
2022-08-31T21:39:26.942Z,50.20
2022-08-31T21:41:55.931Z,50.00
2022-08-31T21:44:24.323Z,50.40
2022-08-31T21:46:52.097Z,50.30
2022-08-31T21:49:19.558Z,50.30
2022-08-31T21:51:55.837Z,49.90
2022-08-31T21:54:27.255Z,50.10
2022-08-31T21:56:57.487Z,50.40
2022-08-31T21:59:29.948Z,50.20
2022-08-31T22:02:00.359Z,50.40
2022-08-31T22:04:29.490Z,50.60
2022-08-31T22:06:57.647Z,50.80
2022-08-31T22:09:26.408Z,50.30
2022-08-31T22:11:56.518Z,50.90
2022-08-31T22:14:29.267Z,50.50
2022-08-31T22:16:58.995Z,50.40
2022-08-31T22:19:28.434Z,50.90
2022-08-31T22:22:01.044Z,50.80
2022-08-31T22:24:31.520Z,50.60
2022-08-31T22:27:02.370Z,50.60
2022-08-31T22:29:32.590Z,51.00
2022-08-31T22:32:03.741Z,50.80
2022-08-31T22:34:31.453Z,51.00
2022-08-31T22:36:58.830Z,50.90
2022-08-31T22:39:29.270Z,51.10
2022-08-31T22:41:58.982Z,51.00
2022-08-31T22:44:28.994Z,50.70
2022-08-31T22:46:56.997Z,50.90
2022-08-31T22:49:25.887Z,50.50
2022-08-31T22:51:54.308Z,50.90
2022-08-31T22:54:23.999Z,50.60
2022-08-31T22:56:51.561Z,50.70
2022-08-31T22:59:26.106Z,51.30
2022-08-31T23:01:56.165Z,51.20
2022-08-31T23:04:27.534Z,50.90
2022-08-31T23:06:59.082Z,50.60
2022-08-31T23:09:30.559Z,50.90
2022-08-31T23:12:00.118Z,50.80
2022-08-31T23:14:28.094Z,50.90
2022-08-31T23:16:57.743Z,51.20
2022-08-31T23:19:30.561Z,51.00
2022-08-31T23:21:58.942Z,51.00
2022-08-31T23:24:31.334Z,51.10
2022-08-31T23:27:04.430Z,51.30
2022-08-31T23:29:36.052Z,51.70
2022-08-31T23:32:04.397Z,51.30
2022-08-31T23:34:34.565Z,51.30
2022-08-31T23:37:07.819Z,51.40
2022-08-31T23:39:43.323Z,51.60
2022-08-31T23:42:13.042Z,51.40
2022-08-31T23:44:43.154Z,52.00
2022-08-31T23:47:17.752Z,51.60
2022-08-31T23:49:45.874Z,51.60
2022-08-31T23:52:18.414Z,51.70
2022-08-31T23:54:47.841Z,51.70
2022-08-31T23:57:32.805Z,52.20
